createdAt,value
2018-07-30T00:00:22.477Z,11.57
2018-07-30T00:02:51.573Z,10.20
2018-07-30T00:05:20.653Z,10.30
2018-07-30T00:07:49.715Z,10.43
2018-07-30T00:10:18.860Z,11.20
2018-07-30T00:12:47.915Z,10.20
2018-07-30T00:15:17.895Z,10.40
2018-07-30T00:17:46.957Z,12.00
2018-07-30T00:20:16.042Z,10.07
2018-07-30T00:22:45.101Z,10.13
2018-07-30T00:25:14.173Z,11.30
2018-07-30T00:27:43.234Z,10.03
2018-07-30T00:30:12.319Z,11.07
2018-07-30T00:32:42.317Z,11.17
2018-07-30T00:35:11.373Z,11.17
2018-07-30T00:37:40.431Z,9.80
2018-07-30T00:42:45.286Z,11.60
2018-07-30T00:47:50.149Z,11.60
2018-07-30T00:50:19.219Z,11.20
2018-07-30T00:52:49.256Z,11.30
2018-07-30T00:55:18.292Z,9.67
2018-07-30T00:57:47.358Z,10.17
2018-07-30T01:02:52.217Z,11.05
2018-07-30T01:05:21.297Z,11.25
2018-07-30T01:07:50.735Z,10.97
2018-07-30T01:10:19.794Z,11.80
2018-07-30T01:12:48.940Z,11.20
2018-07-30T01:15:18.010Z,12.57
2018-07-30T01:17:47.153Z,11.70
2018-07-30T01:20:16.225Z,12.33
2018-07-30T01:22:45.298Z,10.97
2018-07-30T01:25:14.348Z,13.23
2018-07-30T01:27:43.405Z,12.03
2018-07-30T01:30:12.518Z,9.73
2018-07-30T01:32:41.635Z,10.10
2018-07-30T01:35:10.635Z,9.77
2018-07-30T01:37:39.707Z,10.67
2018-07-30T01:40:08.825Z,10.77
2018-07-30T01:42:37.944Z,9.90
2018-07-30T01:45:07.917Z,11.10
2018-07-30T01:47:37.921Z,10.97
2018-07-30T01:50:06.989Z,10.30
2018-07-30T01:52:37.063Z,10.70
2018-07-30T01:55:06.156Z,11.70
2018-07-30T01:57:35.208Z,11.70
2018-07-30T02:00:04.305Z,12.27
2018-07-30T02:02:33.372Z,13.10
2018-07-30T02:07:38.367Z,15.20
2018-07-30T02:14:09.421Z,12.90
2018-07-30T02:16:39.460Z,12.10
2018-07-30T02:19:08.493Z,12.00
2018-07-30T02:21:37.551Z,10.63
2018-07-30T02:24:06.719Z,12.27
2018-07-30T02:26:35.757Z,10.70
2018-07-30T02:31:40.606Z,12.70
2018-07-30T02:34:09.674Z,11.40
2018-07-30T02:39:14.500Z,12.90
2018-07-30T02:41:47.736Z,11.33
2018-07-30T02:46:52.500Z,14.10
2018-07-30T02:54:33.222Z,12.30
2018-07-30T02:57:02.286Z,12.10
2018-07-30T02:59:32.301Z,14.10
2018-07-30T03:04:37.081Z,13.83
2018-07-30T03:09:41.934Z,13.70
2018-07-30T03:14:46.800Z,14.60
2018-07-30T03:17:15.897Z,14.53
2018-07-30T03:19:44.965Z,13.87
2018-07-30T03:22:14.055Z,13.10
2018-07-30T03:24:43.116Z,12.93
2018-07-30T03:27:12.228Z,13.97
2018-07-30T03:29:41.280Z,14.37
2018-07-30T03:34:46.137Z,14.90
2018-07-30T03:37:15.233Z,13.73
2018-07-30T03:44:57.112Z,13.73
2018-07-30T03:47:26.227Z,13.30
2018-07-30T03:52:32.045Z,13.80
2018-07-30T03:55:01.108Z,12.33
2018-07-30T03:57:30.182Z,12.17
2018-07-30T03:59:59.331Z,11.60
2018-07-30T04:02:28.340Z,10.93
2018-07-30T04:07:34.704Z,12.77
2018-07-30T04:10:03.758Z,12.70
2018-07-30T04:12:32.836Z,11.27
2018-07-30T04:15:02.913Z,11.20
2018-07-30T04:17:32.894Z,9.83
2018-07-30T04:20:02.000Z,10.53
2018-07-30T04:22:33.241Z,11.50
2018-07-30T04:25:02.318Z,11.20
2018-07-30T04:27:35.533Z,9.50
2018-07-30T04:30:04.612Z,10.40
2018-07-30T04:32:33.672Z,10.00
2018-07-30T04:35:04.706Z,9.60
2018-07-30T04:37:33.803Z,9.37
2018-07-30T04:42:38.585Z,10.50
2018-07-30T04:47:43.437Z,11.02
2018-07-30T04:50:13.550Z,10.98
2018-07-30T04:52:42.586Z,9.87
2018-07-30T04:55:11.698Z,8.83
2018-07-30T04:57:40.822Z,10.00
2018-07-30T05:00:10.045Z,9.70
2018-07-30T05:02:41.074Z,8.10
2018-07-30T05:07:45.850Z,9.65
2018-07-30T05:10:15.858Z,9.20
2018-07-30T05:12:44.914Z,9.57
2018-07-30T05:15:14.116Z,8.30
2018-07-30T05:17:43.145Z,9.73
2018-07-30T05:20:12.220Z,10.40
2018-07-30T05:22:41.457Z,10.30
2018-07-30T05:25:10.534Z,8.70
2018-07-30T05:27:39.591Z,9.97
2018-07-30T05:30:08.889Z,9.30
2018-07-30T05:32:37.968Z,10.07
2018-07-30T05:37:42.834Z,10.07
2018-07-30T05:40:11.898Z,9.17
2018-07-30T05:42:42.438Z,9.80
2018-07-30T05:45:11.525Z,9.37
2018-07-30T05:50:17.423Z,9.63
2018-07-30T05:52:46.486Z,9.43
2018-07-30T05:55:15.536Z,8.80
2018-07-30T05:57:57.519Z,9.27
2018-07-30T06:00:28.941Z,9.20
2018-07-30T06:02:57.999Z,9.17
2018-07-30T06:05:27.324Z,8.87
2018-07-30T06:07:58.358Z,9.10
2018-07-30T06:10:29.352Z,9.40
2018-07-30T06:12:59.372Z,8.43
2018-07-30T06:15:33.086Z,9.03
2018-07-30T06:20:37.951Z,9.30
2018-07-30T06:23:10.392Z,8.83
2018-07-30T06:25:43.081Z,8.10
2018-07-30T06:28:16.744Z,8.20
2018-07-30T06:30:45.928Z,8.47
2018-07-30T06:33:14.990Z,7.77
2018-07-30T06:35:44.995Z,7.70
2018-07-30T06:38:14.968Z,7.90
2018-07-30T06:40:45.984Z,9.30
2018-07-30T06:45:50.874Z,10.60
2018-07-30T06:50:55.706Z,9.43
2018-07-30T06:53:24.784Z,7.87
2018-07-30T06:58:29.649Z,8.13
2018-07-30T07:01:00.633Z,6.90
2018-07-30T07:03:41.018Z,7.63
2018-07-30T07:06:11.038Z,7.30
2018-07-30T07:08:44.547Z,8.10
2018-07-30T07:13:49.418Z,8.00
2018-07-30T07:16:28.842Z,7.05
2018-07-30T07:19:03.663Z,7.43
2018-07-30T07:21:36.749Z,7.80
2018-07-30T07:24:07.793Z,6.40
2018-07-30T07:29:12.661Z,6.72
2018-07-30T07:31:44.919Z,7.57
2018-07-30T07:34:17.900Z,7.60
2018-07-30T07:36:46.948Z,6.70
2018-07-30T07:39:16.205Z,6.60
2018-07-30T07:41:46.145Z,6.90
2018-07-30T07:44:16.155Z,6.90
2018-07-30T07:47:01.126Z,7.00
2018-07-30T07:49:31.127Z,7.27
2018-07-30T07:52:00.187Z,7.07
2018-07-30T07:54:29.241Z,7.50
2018-07-30T07:57:01.725Z,7.15
2018-07-30T07:59:32.762Z,6.47
2018-07-30T08:02:01.881Z,6.90
2018-07-30T08:04:31.885Z,6.17
2018-07-30T08:07:04.142Z,7.40
2018-07-30T08:12:09.088Z,6.53
2018-07-30T08:14:40.148Z,7.00
2018-07-30T08:17:09.202Z,6.70
2018-07-30T08:22:14.076Z,6.53
2018-07-30T08:24:43.094Z,6.87
2018-07-30T08:27:12.143Z,7.70
2018-07-30T08:29:41.199Z,6.40
2018-07-30T08:32:10.305Z,6.40
2018-07-30T08:37:17.453Z,6.62
2018-07-30T08:39:46.513Z,6.93
2018-07-30T08:42:19.395Z,6.53
2018-07-30T08:44:51.555Z,7.40
2018-07-30T08:47:25.756Z,6.40
2018-07-30T08:55:06.382Z,6.40
2018-07-30T08:57:35.442Z,6.83
2018-07-30T09:00:04.480Z,6.40
2018-07-30T09:02:34.481Z,6.20
2018-07-30T09:05:03.539Z,6.33
2018-07-30T09:10:19.090Z,6.10
2018-07-30T09:12:48.265Z,5.83
2018-07-30T09:15:17.997Z,6.43
2018-07-30T09:17:48.007Z,6.40
2018-07-30T09:20:17.067Z,6.87
2018-07-30T09:25:22.890Z,6.45
2018-07-30T09:27:51.941Z,5.60
2018-07-30T09:30:21.522Z,6.07
2018-07-30T09:32:51.681Z,5.20
2018-07-30T09:35:20.614Z,5.10
2018-07-30T09:38:02.604Z,5.07
2018-07-30T09:40:36.408Z,5.03
2018-07-30T09:43:07.475Z,4.63
2018-07-30T09:45:36.522Z,4.60
2018-07-30T09:48:05.565Z,4.90
2018-07-30T09:50:34.656Z,5.70
2018-07-30T09:53:03.685Z,5.10
2018-07-30T09:58:08.421Z,4.90
2018-07-30T10:03:13.180Z,5.20
2018-07-30T10:08:21.873Z,4.95
2018-07-30T10:10:51.918Z,5.20
2018-07-30T10:13:20.968Z,4.77
2018-07-30T10:15:50.033Z,5.30
2018-07-30T10:20:59.511Z,4.47
2018-07-30T10:23:28.533Z,4.40
2018-07-30T10:25:57.640Z,4.60
2018-07-30T10:28:26.979Z,4.30
2018-07-30T10:30:56.029Z,4.43
2018-07-30T10:33:25.088Z,4.68
2018-07-30T10:38:30.835Z,4.70
2018-07-30T10:41:01.223Z,4.90
2018-07-30T10:43:30.272Z,5.03
2018-07-30T10:45:59.331Z,4.75
2018-07-30T10:48:29.394Z,4.55
2018-07-30T10:50:58.440Z,4.80
2018-07-30T10:53:27.497Z,4.80
2018-07-30T10:55:56.625Z,4.55
2018-07-30T10:58:29.045Z,4.20
2018-07-30T11:00:59.471Z,5.32
2018-07-30T11:03:28.524Z,4.50
2018-07-30T11:05:58.506Z,5.03
2018-07-30T11:08:31.282Z,4.82
2018-07-30T11:11:06.129Z,4.82
2018-07-30T11:16:12.917Z,4.22
2018-07-30T11:18:41.978Z,5.22
2018-07-30T11:21:11.034Z,4.65
2018-07-30T11:23:40.129Z,3.97
2018-07-30T11:26:09.176Z,3.83
2018-07-30T11:28:38.230Z,4.28
2018-07-30T11:31:09.245Z,4.82
2018-07-30T11:33:39.343Z,4.78
2018-07-30T11:36:09.273Z,5.55
2018-07-30T11:41:16.301Z,4.78
2018-07-30T11:43:47.490Z,4.93
2018-07-30T11:46:17.357Z,4.47
2018-07-30T11:48:47.396Z,4.50
2018-07-30T11:53:52.157Z,4.57
2018-07-30T11:56:21.212Z,4.60
2018-07-30T11:58:50.836Z,5.10
2018-07-30T12:01:19.917Z,4.37
2018-07-30T12:03:48.960Z,5.03
2018-07-30T12:06:18.014Z,4.70
2018-07-30T12:08:47.103Z,4.10
2018-07-30T12:11:17.071Z,4.78
2018-07-30T12:16:22.839Z,4.53
2018-07-30T12:18:52.863Z,4.00
2018-07-30T12:23:57.621Z,5.00
2018-07-30T12:26:27.768Z,4.78
2018-07-30T12:28:56.818Z,4.20
2018-07-30T12:31:25.884Z,4.47
2018-07-30T12:33:55.153Z,4.78
2018-07-30T12:36:24.235Z,4.68
2018-07-30T12:38:53.278Z,5.30
2018-07-30T12:41:23.557Z,4.78
2018-07-30T12:43:53.584Z,4.60
2018-07-30T12:48:58.350Z,4.90
2018-07-30T12:51:27.384Z,5.10
2018-07-30T12:53:56.522Z,5.07
2018-07-30T12:56:26.534Z,5.20
2018-07-30T12:58:55.582Z,4.90
2018-07-30T13:01:24.717Z,5.37
2018-07-30T13:03:53.769Z,4.80
2018-07-30T13:06:22.856Z,4.43
2018-07-30T13:08:53.893Z,4.85
2018-07-30T13:13:58.654Z,4.93
2018-07-30T13:16:28.637Z,4.57
2018-07-30T13:18:57.969Z,4.75
2018-07-30T13:24:03.126Z,5.00
2018-07-30T13:26:32.171Z,4.72
2018-07-30T13:29:01.209Z,5.28
2018-07-30T13:31:30.484Z,4.68
2018-07-30T13:33:59.538Z,4.57
2018-07-30T13:36:28.664Z,4.77
2018-07-30T13:38:59.726Z,4.85
2018-07-30T13:41:33.808Z,4.77
2018-07-30T13:44:02.994Z,5.07
2018-07-30T13:46:33.009Z,4.47
2018-07-30T13:51:37.762Z,4.50
2018-07-30T13:54:12.029Z,4.60
2018-07-30T13:56:41.291Z,4.80
2018-07-30T13:59:10.351Z,5.12
2018-07-30T14:01:42.438Z,4.85
2018-07-30T14:04:13.388Z,4.95
2018-07-30T14:09:18.156Z,4.70
2018-07-30T14:14:30.793Z,5.10
2018-07-30T14:17:00.812Z,5.03
2018-07-30T14:19:29.876Z,5.57
2018-07-30T14:21:59.828Z,5.15
2018-07-30T14:24:29.025Z,5.23
2018-07-30T14:26:58.089Z,4.72
2018-07-30T14:29:27.143Z,4.95
2018-07-30T14:31:56.188Z,4.72
2018-07-30T14:34:27.227Z,5.90
2018-07-30T14:36:56.336Z,5.40
2018-07-30T14:39:25.393Z,6.00
2018-07-30T14:41:54.440Z,5.90
2018-07-30T14:44:23.533Z,5.30
2018-07-30T14:46:53.733Z,6.30
2018-07-30T14:49:22.802Z,5.50
2018-07-30T14:51:54.047Z,5.22
2018-07-30T14:54:23.101Z,5.50
2018-07-30T14:56:53.115Z,5.60
2018-07-30T14:59:22.266Z,4.75
2018-07-30T15:01:51.235Z,4.33
2018-07-30T15:04:20.272Z,5.80
2018-07-30T15:06:49.328Z,4.93
2018-07-30T15:09:19.316Z,5.12
2018-07-30T15:11:53.952Z,5.37
2018-07-30T15:14:22.998Z,5.13
2018-07-30T15:16:52.072Z,4.80
2018-07-30T15:19:21.184Z,5.57
2018-07-30T15:21:52.156Z,5.13
2018-07-30T15:24:21.208Z,5.27
2018-07-30T15:26:53.474Z,4.70
2018-07-30T15:29:22.625Z,5.90
2018-07-30T15:31:51.665Z,4.70
2018-07-30T15:34:21.689Z,5.17
2018-07-30T15:36:51.711Z,5.07
2018-07-30T15:39:22.913Z,4.63
2018-07-30T15:41:51.956Z,4.43
2018-07-30T15:44:21.013Z,5.10
2018-07-30T15:46:50.268Z,4.60
2018-07-30T15:49:19.235Z,4.80
2018-07-30T15:51:48.313Z,4.57
2018-07-30T15:54:17.505Z,5.07
2018-07-30T15:56:46.565Z,5.27
2018-07-30T15:59:15.653Z,5.40
2018-07-30T16:01:47.618Z,5.33
2018-07-30T16:04:20.496Z,4.87
2018-07-30T16:06:49.544Z,4.77
2018-07-30T16:09:18.604Z,5.50
2018-07-30T16:11:47.652Z,5.10
2018-07-30T16:14:16.713Z,4.80
2018-07-30T16:16:46.733Z,4.80
2018-07-30T16:19:20.444Z,5.25
2018-07-30T16:21:49.499Z,4.80
2018-07-30T16:24:18.716Z,5.10
2018-07-30T16:26:47.787Z,4.93
2018-07-30T16:29:16.812Z,5.17
2018-07-30T16:31:46.866Z,6.43
2018-07-30T16:34:15.947Z,7.13
2018-07-30T16:36:44.996Z,4.50
2018-07-30T16:39:14.146Z,6.93
2018-07-30T16:41:43.185Z,5.53
2018-07-30T16:46:48.157Z,11.70
2018-07-30T16:49:17.193Z,5.80
2018-07-30T16:51:46.354Z,10.33
2018-07-30T16:54:15.418Z,10.37
2018-07-30T16:56:44.487Z,9.80
2018-07-30T16:59:15.547Z,4.70
2018-07-30T17:01:46.577Z,4.50
2018-07-30T17:04:19.051Z,4.67
2018-07-30T17:06:48.133Z,5.20
2018-07-30T17:09:17.174Z,4.80
2018-07-30T17:11:46.285Z,4.93
2018-07-30T17:14:15.398Z,5.20
2018-07-30T17:19:21.227Z,4.80
2018-07-30T17:21:50.277Z,5.13
2018-07-30T17:24:19.329Z,4.60
2018-07-30T17:26:50.313Z,4.90
2018-07-30T17:34:34.388Z,4.80
2018-07-30T17:37:06.821Z,4.87
2018-07-30T17:39:37.884Z,4.87
2018-07-30T17:42:07.116Z,5.00
2018-07-30T17:44:38.157Z,4.40
2018-07-30T17:49:42.997Z,5.20
2018-07-30T17:52:15.745Z,5.40
2018-07-30T17:54:44.809Z,4.37
2018-07-30T17:57:13.868Z,4.67
2018-07-30T17:59:42.936Z,5.53
2018-07-30T18:04:47.842Z,5.80
2018-07-30T18:07:16.909Z,6.30
2018-07-30T18:09:45.966Z,5.63
2018-07-30T18:12:15.024Z,5.37
2018-07-30T18:14:44.093Z,6.03
2018-07-30T18:17:13.186Z,5.07
2018-07-30T18:22:18.993Z,5.53
2018-07-30T18:24:50.010Z,7.75
2018-07-30T18:27:19.150Z,8.03
2018-07-30T18:29:49.134Z,6.87
2018-07-30T18:34:54.049Z,6.40
2018-07-30T18:37:23.100Z,7.82
2018-07-30T18:42:27.952Z,6.68
2018-07-30T18:44:57.952Z,6.12
2018-07-30T18:50:02.821Z,5.62
2018-07-30T18:52:31.868Z,6.40
2018-07-30T18:55:00.924Z,6.73
2018-07-30T18:57:29.981Z,6.60
2018-07-30T18:59:59.021Z,6.20
2018-07-30T19:02:28.128Z,6.10
2018-07-30T19:07:33.980Z,6.30
2018-07-30T19:12:38.863Z,6.03
2018-07-30T19:15:07.926Z,6.10
2018-07-30T19:22:48.617Z,5.90
2018-07-30T19:27:55.228Z,6.22
2018-07-30T19:38:11.618Z,5.80
2018-07-30T19:40:40.683Z,6.00
2018-07-30T19:45:45.561Z,6.70
2018-07-30T19:48:14.637Z,6.70
2018-07-30T19:53:19.513Z,7.62
2018-07-30T19:55:48.574Z,7.82
2018-07-30T19:58:18.832Z,7.10
2018-07-30T20:00:48.613Z,6.87
2018-07-30T20:03:17.662Z,7.67
2018-07-30T20:05:46.740Z,7.13
2018-07-30T20:08:15.832Z,6.60
2018-07-30T20:10:44.865Z,6.23
2018-07-30T20:13:14.054Z,7.30
2018-07-30T20:15:44.025Z,6.57
2018-07-30T20:18:13.080Z,6.60
2018-07-30T20:20:42.133Z,7.57
2018-07-30T20:23:11.180Z,7.07
2018-07-30T20:25:40.291Z,8.50
2018-07-30T20:28:09.289Z,7.43
2018-07-30T20:30:38.348Z,8.27
2018-07-30T20:35:43.420Z,7.22
2018-07-30T20:40:48.330Z,7.60
2018-07-30T20:43:17.391Z,7.37
2018-07-30T20:45:46.451Z,7.77
2018-07-30T20:48:15.514Z,7.20
2018-07-30T20:53:21.304Z,7.55
2018-07-30T20:55:50.350Z,7.50
2018-07-30T20:58:19.629Z,7.93
2018-07-30T21:03:24.748Z,7.20
2018-07-30T21:05:54.419Z,7.10
2018-07-30T21:08:23.995Z,7.37
2018-07-30T21:10:56.380Z,7.87
2018-07-30T21:18:39.987Z,7.73
2018-07-30T21:21:09.971Z,8.00
2018-07-30T21:23:39.901Z,7.70
2018-07-30T21:26:10.343Z,8.40
2018-07-30T21:28:39.672Z,7.10
2018-07-30T21:31:10.034Z,6.93
2018-07-30T21:33:39.612Z,7.70
2018-07-30T21:36:08.758Z,7.33
2018-07-30T21:38:37.881Z,7.83
2018-07-30T21:41:07.423Z,8.10
2018-07-30T21:43:36.844Z,7.63
2018-07-30T21:46:05.904Z,8.17
2018-07-30T21:48:34.966Z,7.83
2018-07-30T21:51:06.026Z,8.30
2018-07-30T21:53:36.129Z,8.00
2018-07-30T21:56:05.178Z,8.40
2018-07-30T21:58:34.242Z,8.47
2018-07-30T22:01:04.393Z,8.70
2018-07-30T22:06:09.229Z,8.50
2018-07-30T22:11:14.089Z,8.80
2018-07-30T22:13:43.187Z,8.32
2018-07-30T22:18:48.026Z,7.97
2018-07-30T22:21:18.038Z,8.70
2018-07-30T22:23:47.081Z,8.00
2018-07-30T22:26:16.129Z,8.43
2018-07-30T22:28:46.230Z,7.70
2018-07-30T22:33:51.028Z,8.90
2018-07-30T22:36:20.101Z,8.88
2018-07-30T22:38:49.158Z,8.40
2018-07-30T22:41:18.570Z,8.40
2018-07-30T22:43:47.621Z,8.40
2018-07-30T22:48:52.805Z,8.80
2018-07-30T22:51:21.862Z,8.67
2018-07-30T22:53:50.913Z,8.77
2018-07-30T22:56:22.779Z,9.00
2018-07-30T22:58:51.831Z,8.10
2018-07-30T23:01:20.889Z,8.82
2018-07-30T23:03:49.961Z,9.53
2018-07-30T23:06:19.024Z,8.70
2018-07-30T23:08:50.071Z,9.23
2018-07-30T23:11:19.166Z,8.57
2018-07-30T23:13:48.272Z,8.17
2018-07-30T23:16:17.421Z,7.60
2018-07-30T23:18:46.474Z,8.90
2018-07-30T23:21:15.529Z,8.50
2018-07-30T23:23:44.577Z,8.37
2018-07-30T23:28:50.966Z,8.60
2018-07-30T23:31:20.138Z,8.90
2018-07-30T23:33:49.197Z,8.63
2018-07-30T23:36:18.267Z,8.53
2018-07-30T23:41:23.118Z,9.50
2018-07-30T23:46:27.982Z,9.80
2018-07-30T23:51:32.319Z,9.50
2018-07-30T23:54:01.383Z,8.50
2018-07-30T23:56:30.627Z,9.43
2018-07-30T23:58:59.694Z,9.80
